Durbin, West Virginia
Current Conditions -  °F | °C
As of 11:51 PM on Wednesday 17 Dec 2014 (Local Time) from KEKN Reporting Station
Overcast Overcast  
Wind Chill: 21°   Ceiling: 2600
Heat Index: 29°   Visibility: 10mi
Dew Point: 23°   Wind: 8mph
Humidity: 78%   Direction: 320°NW
Pressure: 30.12"   Gusts: 20mph
Location:  38.55°N, 79.83°W
Report Text: KEKN 180451Z AUTO 32007G17KT 10SM OVC026 M02/M05 A3012 RMK AO2 SLP224 T10171050 400501017 TSNO
Loading
Personal Weather Stations






























Interactive Weather Map New forecast layout! Learn more

10-Day Weather Forecast

Advertisements
Track Severe Weather on mobile